Tiempo atmosférico en la estación meteorológica de Almudébar, Huesca (390 m.)



Fecha
DESCASC
Temp. máxima en grados centígrados (hora)
DESCASC
Temp. mínima en grados centígrados (hora)
DESCASC
Temp. media en grados centígrados
DESCASC
Racha de viento máxima en m/sg (hora)
DESCASC
Velocidad máxima media en intervalos de 10 minutos(hora)
DESCASC
Precipitaciones diarias en mm
DESCASC
Precipitaciones de 00:00 a 06:00 en mm
DESCASC
Precipitaciones de 06:00 a 12:00 en mm
DESCASC
Precipitaciones de 12:00 a 18:00 en mm
DESCASC
Precipitaciones de 18:00 a 24:00 en mm
DESCASC

Gráficas

Temp. máximas Temp. mínimas Temp. medias Precipitaciones Rachas de viento máximas Velocidades máximas media en intervalos de 10 minutos

Datos horarios

Fecha y hora oficial Temperatura (ºC) Velocidad del viento (km/h) Dirección del viento Racha (km/h) Dirección de racha Precipitación (mm) Presión (hPa) Tendencia (hPa) Humedad (%)
2020-03-28 23:00:00 7.9 3 Oeste 5 Noroeste 0 -- -- 72
2020-03-28 22:00:00 8.3 5 Noroeste 9 Noroeste 0 -- -- 71
2020-03-28 21:00:00 10.1 5 Noroeste 7 Noroeste 0 -- -- 62
2020-03-28 20:00:00 12.3 5 Oeste 13 Oeste 0 -- -- 54
2020-03-28 19:00:00 15.5 6 Oeste 19 Oeste 0 -- -- 44
2020-03-28 18:00:00 16.9 12 Oeste 22 Oeste 0 -- -- 40
2020-03-28 17:00:00 17.7 10 Oeste 20 Noroeste 0 -- -- 37
2020-03-28 16:00:00 17.6 10 Oeste 21 Oeste 0 -- -- 35
2020-03-28 15:00:00 17.2 9 Oeste 21 Oeste 0 -- -- 41
2020-03-28 14:00:00 16.2 13 Oeste 23 Sudoeste 0 -- -- 43
2020-03-28 13:00:00 15.4 13 Sudoeste 22 Sudoeste 0 -- -- 52
2020-03-28 12:00:00 13.7 9 Oeste 21 Oeste 0 -- -- 54
2020-03-28 11:00:00 12.2 11 Sudoeste 18 Sudoeste 0 -- -- 63
2020-03-28 10:00:00 9.5 7 Sudoeste 10 Sudoeste 0 -- -- 77
2020-03-28 09:00:00 6.1 3 Oeste 5 Oeste 0 -- -- 85
2020-03-28 08:00:00 2.5 0 Calma 5 Noroeste 0 -- -- 93
2020-03-28 07:00:00 1.2 4 Oeste 6 Oeste 0 -- -- 91
2020-03-28 06:00:00 1.8 3 Norte 4 Noroeste 0 -- -- 93
2020-03-28 05:00:00 2.4 0 Calma 5 Noroeste 0 -- -- 90
2020-03-28 04:00:00 2.5 0 Calma 5 Noroeste 0 -- -- 87
2020-03-28 03:00:00 2.7 4 Este 10 Este 0 -- -- 88
2020-03-28 02:00:00 2.9 5 Nordeste 9 Nordeste 0 -- -- 86
2020-03-28 01:00:00 2.8 2 Nordeste 6 Sudeste 0 -- -- 89
2020-03-28 00:00:00 3.7 0 Calma 4 Norte 0 -- -- 82
2020-03-27 23:00:00 4.9 2 Norte 6 Nordeste 0 -- -- 78
2020-03-27 22:00:00 5.8 4 Nordeste 5 Nordeste 0 -- -- 77
2020-03-27 21:00:00 7.6 2 Norte 8 Oeste 0 -- -- 69
2020-03-27 20:00:00 9.3 4 Oeste 10 Sudoeste 0 -- -- 61
2020-03-27 19:00:00 11.9 7 Sudoeste 15 Sudoeste 0 -- -- 56
2020-03-27 18:00:00 13.2 10 Sudoeste 20 Sudoeste 0 -- -- 49
2020-03-27 17:00:00 13.7 9 Sudoeste 23 Sudoeste 0 -- -- 46
2020-03-27 16:00:00 13.5 9 Sudoeste 19 Sudoeste 0 -- -- 46
2020-03-27 15:00:00 13.2 9 Sudoeste 22 Oeste 0 -- -- 48
2020-03-27 14:00:00 12.6 11 Sudoeste 21 Sur 0 -- -- 49
2020-03-27 13:00:00 11.7 10 Oeste 18 Sudoeste 0 -- -- 57
2020-03-27 12:00:00 10.4 7 Oeste 15 Noroeste 0 -- -- 59
2020-03-27 11:00:00 8.9 8 Oeste 17 Oeste 0 -- -- 68
2020-03-27 10:00:00 7 6 Oeste 10 Oeste 0 -- -- 81
2020-03-27 09:00:00 4.3 4 Sudoeste 8 Sudoeste 0 -- -- 88
2020-03-27 08:00:00 1.2 3 Noroeste 5 Noroeste 0 -- -- 93
2020-03-27 07:00:00 0.2 3 Oeste 5 Oeste 0 -- -- 95
2020-03-27 06:00:00 -0.1 0 Calma 5 Este 0 -- -- 93
2020-03-27 05:00:00 0.8 3 Norte 4 Norte 0 -- -- 94
2020-03-27 04:00:00 1.3 2 Norte 8 Nordeste 0 -- -- 91
2020-03-27 03:00:00 2.3 6 Este 9 Nordeste 0 -- -- 93
2020-03-27 02:00:00 3.2 7 Este 8 Nordeste 0 -- -- 91
2020-03-27 01:00:00 3.9 0 Calma 10 Este 0 -- -- 89
2020-03-27 00:00:00 4.2 7 Este 16 Este 0 -- -- 89
2020-03-26 23:00:00 4.8 10 Este 19 Este 0 -- -- 86
2020-03-26 22:00:00 5.4 17 Este 23 Este 0 -- -- 83
2020-03-26 21:00:00 5.1 18 Este 36 Este 0 -- -- 83
2020-03-26 20:00:00 6.3 24 Sudeste 44 Este 0 -- -- 76
2020-03-26 19:00:00 8.6 27 Sudeste 47 Sudeste 0 -- -- 70
2020-03-26 18:00:00 13.3 20 Noroeste 37 Noroeste 0 -- -- 35
2020-03-26 17:00:00 14.3 19 Noroeste 35 Noroeste 0 -- -- 34
2020-03-26 16:00:00 14.4 8 Oeste 25 Noroeste 0 -- -- 26
2020-03-26 15:00:00 13.8 12 Oeste 27 Noroeste 0 -- -- 30
2020-03-26 14:00:00 13.2 15 Noroeste 33 Noroeste 0 -- -- 34
2020-03-26 13:00:00 11.8 22 Noroeste 42 Noroeste 0 -- -- 37
2020-03-26 12:00:00 10.8 28 Noroeste 48 Noroeste 0 -- -- 39
2020-03-26 11:00:00 10.1 31 Noroeste 51 Noroeste 0 -- -- 46
2020-03-26 10:00:00 9.3 36 Noroeste 51 Noroeste 0 -- -- 51
2020-03-26 09:00:00 7.5 32 Noroeste 46 Oeste 0 -- -- 75
2020-03-26 08:00:00 5.4 24 Noroeste 36 Noroeste 0 -- -- 85
2020-03-26 07:00:00 2.9 11 Oeste 18 Oeste 0 -- -- 95
2020-03-26 06:00:00 2.7 13 Noroeste 20 Noroeste 0 -- -- 94
2020-03-26 05:00:00 2.2 15 Noroeste 22 Noroeste 0 -- -- 95
2020-03-26 04:00:00 3 7 Oeste 20 Oeste 0 -- -- 96
2020-03-26 03:00:00 2.6 4 Oeste 6 Oeste 0 -- -- 95
2020-03-26 02:00:00 3.3 2 Oeste 8 Oeste 0 -- -- 94
2020-03-26 01:00:00 4.5 3 Oeste 5 Sudoeste 0 -- -- 94
2020-03-26 00:00:00 4.9 0 Calma 6 Sudoeste 0 -- -- 94
2020-03-25 23:00:00 4.7 3 Oeste 8 Nordeste 0 -- -- 91
2020-03-25 22:00:00 4.6 6 Nordeste 8 Nordeste 0 -- -- 90
2020-03-25 21:00:00 5.7 5 Nordeste 9 Este 0 -- -- 88
2020-03-25 20:00:00 6.4 7 Este 13 Sudeste 0 -- -- 85
2020-03-25 19:00:00 6.9 9 Este 14 Este 0 -- -- 82
2020-03-25 18:00:00 7.2 9 Este 14 Este 0 -- -- 79
2020-03-25 17:00:00 7.2 10 Este 18 Este 0 -- -- 78
2020-03-25 16:00:00 7.2 11 Este 21 Este 0 -- -- 78
2020-03-25 15:00:00 7.1 12 Este 22 Este 0 -- -- 80
2020-03-25 14:00:00 7.1 18 Sudeste 26 Este 0 -- -- 79
2020-03-25 13:00:00 6 15 Este 24 Este 0 -- -- 85
2020-03-25 12:00:00 5.9 19 Este 30 Este 0 -- -- 86
2020-03-25 11:00:00 5.6 21 Este 31 Este 0 -- -- 89
2020-03-25 10:00:00 5.6 22 Este 31 Este 0 -- -- 87
2020-03-25 09:00:00 5.7 21 Este 30 Este 0 -- -- 90
2020-03-25 08:00:00 6.2 18 Este 30 Este 0 -- -- 90
2020-03-25 07:00:00 6.6 12 Este 25 Este 0 -- -- 92
2020-03-25 06:00:00 7 13 Este 20 Este 0 -- -- 94
2020-03-25 05:00:00 6.9 13 Este 19 Este 0 -- -- 95
2020-03-25 04:00:00 7 12 Este 20 Este 0 -- -- 96
2020-03-25 03:00:00 7.2 16 Este 28 Este 0.2 -- -- 95
2020-03-25 02:00:00 7.8 16 Este 24 Este 0 -- -- 93
2020-03-25 01:00:00 8.3 15 Este 23 Este 0 -- -- 92
2020-03-25 00:00:00 8.6 13 Este 24 Sudeste 0 -- -- 91
2020-03-24 23:00:00 9 13 Este 22 Este 1.4 -- -- 91
2020-03-24 22:00:00 9.3 14 Sudeste 22 Sudeste 2.2 -- -- 93
2020-03-24 21:00:00 10 14 Este 19 Sudeste 0.8 -- -- 91
2020-03-24 20:00:00 11.8 10 Este 19 Sudeste 0.2 -- -- 81
2020-03-24 19:00:00 12.9 7 Sur 18 Sudoeste 0 -- -- 68
2020-03-24 18:00:00 13.6 14 Sudoeste 22 Sudoeste 0 -- -- 68
2020-03-24 17:00:00 14.2 13 Sudoeste 20 Sudoeste 0 -- -- 65
2020-03-24 16:00:00 16 12 Sudoeste 18 Oeste 0 -- -- 61
2020-03-24 15:00:00 14.2 13 Sudoeste 20 Sudoeste 0 -- -- 67
2020-03-24 14:00:00 14.9 7 Sur 17 Sudeste 0 -- -- 62
2020-03-24 13:00:00 14.9 8 Este 18 Sudeste 0 -- -- 63
2020-03-24 12:00:00 13.3 9 Este 20 Sudeste 0 -- -- 68
2020-03-24 11:00:00 12.7 15 Sudeste 22 Sudeste 0 -- -- 73
2020-03-24 10:00:00 12.6 14 Sudeste 20 Este 0 -- -- 76
2020-03-24 09:00:00 10.2 11 Este 22 Este 0 -- -- 87
2020-03-24 08:00:00 9 10 Nordeste 18 Nordeste 0 -- -- 91
2020-03-24 07:00:00 8.8 8 Este 15 Este 0 -- -- 93
2020-03-24 06:00:00 9 11 Este 15 Este 0 -- -- 92
2020-03-24 05:00:00 8.2 7 Nordeste 13 Sudeste 0 -- -- 94
2020-03-24 04:00:00 8 10 Este 13 Este 0 -- -- 94
2020-03-24 03:00:00 8.4 8 Este 11 Este 0 -- -- 92
2020-03-24 02:00:00 9.5 6 Este 19 Este 0 -- -- 91
2020-03-24 01:00:00 10.1 10 Este 19 Este 0 -- -- 93
2020-03-24 00:00:00 10.2 9 Nordeste 13 Nordeste 0 -- -- 94
2020-03-23 23:00:00 10.3 6 Este 18 Este 0 -- -- 94
2020-03-23 22:00:00 9.9 7 Nordeste 15 Nordeste 0 -- -- 91
2020-03-23 21:00:00 9.9 4 Este 10 Nordeste 0 -- -- 92
2020-03-23 20:00:00 10.9 9 Este 16 Este 0 -- -- 91
2020-03-23 19:00:00 11.3 7 Este 17 Sudeste 0 -- -- 87
2020-03-23 18:00:00 11.8 13 Sudeste 41 Sudeste 0 -- -- 84
2020-03-23 17:00:00 13.6 14 Sudeste 22 Sudeste 0 -- -- 80
2020-03-23 16:00:00 14 20 Sudeste 47 Sudeste 0 -- -- 73
2020-03-23 15:00:00 17.3 23 Sudeste 35 Sudeste 0 -- -- 60
2020-03-23 14:00:00 15.8 22 Este 30 Este 0 -- -- 65
2020-03-23 13:00:00 14.9 16 Este 29 Sudeste 0 -- -- 70
2020-03-23 12:00:00 14.6 20 Este 30 Este 0 -- -- 68
2020-03-23 11:00:00 14.3 19 Este 30 Este 0 -- -- 69
2020-03-23 10:00:00 12.9 13 Este 21 Este 0 -- -- 78
2020-03-23 09:00:00 8.8 0 Calma 5 Oeste 0 -- -- 94
2020-03-23 08:00:00 7.7 3 Sur 9 Nordeste 0 -- -- 94
2020-03-23 07:00:00 6.9 5 Nordeste 11 Nordeste 0 -- -- 93
2020-03-23 06:00:00 6.8 6 Nordeste 9 Nordeste 0 -- -- 93
2020-03-23 05:00:00 7.9 8 Nordeste 9 Nordeste 0 -- -- 91
2020-03-23 04:00:00 8.8 4 Este 5 Este 0 -- -- 92
2020-03-23 03:00:00 8.7 3 Este 12 Nordeste 0 -- -- 93
2020-03-23 02:00:00 8.6 7 Nordeste 11 Nordeste 0 -- -- 91
2020-03-23 01:00:00 7.8 0 Calma 4 Este 0 -- -- 91
2020-03-23 00:00:00 7.9 3 Sudeste 11 Nordeste 0 -- -- 89
2020-03-22 23:00:00 9.4 7 Nordeste 12 Nordeste 0 -- -- 87
2020-03-22 22:00:00 10.4 6 Nordeste 11 Este 0 -- -- 82
2020-03-22 21:00:00 11.3 7 Nordeste 12 Nordeste 0 -- -- 81
2020-03-22 20:00:00 11.7 0 Calma 15 Sudoeste 0 -- -- 77
2020-03-22 19:00:00 13.7 8 Sudoeste 15 Sudoeste 0 -- -- 70
2020-03-22 18:00:00 16.2 12 Sudeste 17 Sudeste 0 -- -- 54
2020-03-22 17:00:00 16.5 13 Sudeste 20 Sudeste 0 -- -- 54
2020-03-22 16:00:00 17 9 Este 23 Este 0 -- -- 56
2020-03-22 15:00:00 16.5 12 Sudeste 19 Este 0 -- -- 58
2020-03-22 14:00:00 15.5 13 Este 20 Este 0 -- -- 61
2020-03-22 13:00:00 14.3 12 Este 22 Este 0 -- -- 62
2020-03-22 12:00:00 14.3 6 Este 14 Sudeste 0 -- -- 69
2020-03-22 11:00:00 12.5 5 Sur 10 Sudeste 0 -- -- 78
2020-03-22 10:00:00 9.2 0 Calma 4 Sudeste 0 -- -- 92
2020-03-22 09:00:00 6.6 0 Calma 2 Sudeste 0 -- -- 95
2020-03-22 08:00:00 3.5 0 Calma 2 Norte 0 -- -- 95
2020-03-22 07:00:00 3.4 0 Calma 5 Noroeste 0 -- -- 93
2020-03-22 06:00:00 4.2 4 Noroeste 5 Noroeste 0 -- -- 94
2020-03-22 05:00:00 3.6 0 Calma 4 Sudeste 0 -- -- 93
2020-03-22 04:00:00 4.6 2 Sudeste 8 Nordeste 0 -- -- 89
2020-03-22 03:00:00 5.7 6 Nordeste 10 Nordeste 0 -- -- 91
2020-03-22 02:00:00 6.1 5 Este 13 Nordeste 0 -- -- 87
2020-03-22 01:00:00 5.6 2 Nordeste 11 Este 0 -- -- 86
2020-03-22 00:00:00 6.9 8 Este 17 Nordeste 0 -- -- 81
2020-03-21 23:00:00 7.9 13 Nordeste 17 Nordeste 0 -- -- 76
2020-03-21 22:00:00 7.4 3 Nordeste 12 Nordeste 0 -- -- 76
2020-03-21 21:00:00 8.6 10 Nordeste 12 Nordeste 0 -- -- 71
2020-03-21 20:00:00 10.6 10 Nordeste 14 Nordeste 0 -- -- 67
2020-03-21 19:00:00 12.9 7 Este 13 Este 0 -- -- 60
2020-03-21 18:00:00 14.6 10 Este 18 Este 0 -- -- 54
2020-03-21 17:00:00 15.2 12 Este 21 Sudeste 0 -- -- 51
2020-03-21 16:00:00 15.6 12 Sudeste 20 Este 0 -- -- 50
2020-03-21 15:00:00 15.5 13 Este 24 Este 0 -- -- 51
2020-03-21 14:00:00 14.8 13 Sudeste 24 Este 0 -- -- 53
2020-03-21 13:00:00 14.3 13 Sudeste 30 Sudeste 0 -- -- 55
2020-03-21 12:00:00 13.4 13 Sudeste 21 Este 0 -- -- 59
2020-03-21 11:00:00 11.7 10 Sudeste 17 Sudeste 0 -- -- 71
2020-03-21 10:00:00 9.8 4 Sudeste 9 Sudeste 0 -- -- 85
2020-03-21 09:00:00 7.3 2 Nordeste 5 Nordeste 0 -- -- 91
2020-03-21 08:00:00 4.4 4 Nordeste 6 Nordeste 0 -- -- 97
2020-03-21 07:00:00 3.2 3 Sudeste 4 Sudeste 0 -- -- 96
2020-03-21 06:00:00 3 2 Sur 9 Este 0 -- -- 94
2020-03-21 05:00:00 4.4 7 Nordeste 10 Nordeste 0 -- -- 94
2020-03-21 04:00:00 5.1 7 Nordeste 8 Nordeste 0 -- -- 95
2020-03-21 03:00:00 5.3 0 Calma 11 Este 0 -- -- 93
2020-03-21 02:00:00 5.8 4 Este 9 Nordeste 0 -- -- 92
2020-03-21 01:00:00 6.3 8 Este 11 Este 0 -- -- 91
2020-03-21 00:00:00 6.8 6 Este 15 Este 0 -- -- 90
2020-03-20 23:00:00 7.7 10 Nordeste 18 Este 0 -- -- 87
2020-03-20 22:00:00 9.3 15 Este 20 Sudeste 0 -- -- 80
2020-03-20 21:00:00 9.5 5 Este 18 Sudeste 0 -- -- 81
2020-03-20 20:00:00 11 8 Nordeste 13 Este 0 -- -- 78
2020-03-20 19:00:00 12.7 9 Este 18 Este 0 -- -- 71
2020-03-20 18:00:00 14.3 15 Este 27 Este 0 -- -- 65
2020-03-20 17:00:00 15.2 17 Sudeste 28 Sudeste 0 -- -- 62
2020-03-20 16:00:00 15.1 19 Sudeste 34 Sudeste 0 -- -- 61
2020-03-20 15:00:00 15.1 26 Sudeste 36 Sudeste 0 -- -- 62
2020-03-20 14:00:00 14.8 21 Sudeste 30 Sudeste 0 -- -- 66
2020-03-20 13:00:00 13.9 18 Sudeste 31 Sudeste 0 -- -- 69
2020-03-20 12:00:00 13 18 Sudeste 31 Este 0 -- -- 75
2020-03-20 11:00:00 11.3 15 Sudeste 21 Este 0 -- -- 86
2020-03-20 10:00:00 7.3 6 Sudeste 10 Sudeste 0 -- -- 99
2020-03-20 09:00:00 5.3 8 Sudeste 10 Sudeste 0 -- -- 98
2020-03-20 08:00:00 3.4 4 Sudeste 13 Sudeste 0 -- -- 97
2020-03-20 07:00:00 4.5 8 Nordeste 12 Nordeste 0 -- -- 96
2020-03-20 06:00:00 4.7 4 Este 8 Nordeste 0 -- -- 95
2020-03-20 05:00:00 5 3 Oeste 19 Sudeste 0 -- -- 89
2020-03-20 04:00:00 6.5 12 Este 20 Este 0 -- -- 92
2020-03-20 03:00:00 5.9 12 Nordeste 17 Nordeste 0 -- -- 94
2020-03-20 02:00:00 6.2 4 Nordeste 7 Nordeste 0 -- -- 92
2020-03-20 01:00:00 6.7 5 Este 13 Nordeste 0 -- -- 91
2020-03-20 00:00:00 7.3 10 Nordeste 17 Nordeste 0 -- -- 90
2020-03-19 23:00:00 8.7 12 Nordeste 21 Este 0 -- -- 88
2020-03-19 22:00:00 10.3 13 Este 21 Este 0 -- -- 81
2020-03-19 21:00:00 10.6 12 Nordeste 19 Este 0 -- -- 87
2020-03-19 20:00:00 12.5 13 Este 21 Este 0 -- -- 81
2020-03-19 19:00:00 13.7 13 Este 17 Este 0 -- -- 77
2020-03-19 18:00:00 15 11 Este 24 Este 0 -- -- 71
2020-03-19 17:00:00 16.2 17 Este 26 Este 0 -- -- 65
2020-03-19 16:00:00 16.4 16 Sudeste 27 Sudeste 0 -- -- 64
2020-03-19 15:00:00 16 14 Sudeste 22 Este 0 -- -- 71
2020-03-19 14:00:00 15.7 15 Sudeste 22 Sudeste 0 -- -- 74
2020-03-19 13:00:00 14.7 9 Sudeste 17 Sudeste 0 -- -- 74
2020-03-19 12:00:00 11.9 6 Este 14 Este 0 -- -- 95
2020-03-19 11:00:00 10 8 Este 14 Este 0 -- -- 99
2020-03-19 10:00:00 9.3 9 Este 12 Este 0 -- -- 99
2020-03-19 09:00:00 8.7 8 Sudeste 12 Sudeste 0 -- -- 99
2020-03-19 08:00:00 6.3 5 Sudeste 8 Sudeste 0 -- -- 98
2020-03-19 07:00:00 6.2 6 Este 8 Nordeste 0 -- -- 97
2020-03-19 06:00:00 6.6 6 Nordeste 8 Nordeste 0 -- -- 97
2020-03-19 05:00:00 6.6 3 Norte 6 Norte 0 -- -- 96
2020-03-19 04:00:00 7.2 3 Este 5 Este 0 -- -- 97
2020-03-19 03:00:00 7.4 0 Calma 5 Norte 0 -- -- 95
2020-03-19 02:00:00 7.8 0 Calma 6 Nordeste 0 -- -- 95
2020-03-19 01:00:00 8 3 Nordeste 7 Nordeste 0 -- -- 94
2020-03-19 00:00:00 8.8 0 Calma 6 Nordeste 0 -- -- 93
2020-03-18 23:00:00 9.5 5 Nordeste 6 Nordeste 0 -- -- 92
2020-03-18 22:00:00 10.4 3 Nordeste 4 Nordeste 0 -- -- 90
2020-03-18 21:00:00 11.4 2 Noroeste 4 Noroeste 0 -- -- 88
2020-03-18 20:00:00 12.6 2 Oeste 4 Sudoeste 0 -- -- 88
2020-03-18 19:00:00 13.8 3 Sudoeste 6 Sudoeste 0 -- -- 87
2020-03-18 18:00:00 15.1 5 Sudeste 6 Sudeste 0 -- -- 80
2020-03-18 17:00:00 15.8 0 Calma 5 Noroeste 0 -- -- 70
2020-03-18 16:00:00 15.8 3 Noroeste 8 Sudoeste 0 -- -- 68
2020-03-18 15:00:00 16.1 3 Sur 9 Sudoeste 0 -- -- 71
2020-03-18 14:00:00 15.6 3 Sudoeste 6 Sur 0 -- -- 71
2020-03-18 13:00:00 14.9 3 Este 8 Nordeste 0 -- -- 80
2020-03-18 12:00:00 13.3 3 Sudeste 6 Sudeste 0 -- -- 86
2020-03-18 11:00:00 11.7 2 Sudeste 4 Sudeste 0 -- -- 91
2020-03-18 10:00:00 9.2 0 Calma 2 Sudeste 0 -- -- 98
2020-03-18 09:00:00 7.5 0 Calma 3 Norte 0 -- -- 98
2020-03-18 08:00:00 6.1 0 Calma 3 Norte 0 -- -- 96
2020-03-18 07:00:00 6.1 0 Calma 3 Nordeste 0 -- -- 96
2020-03-18 06:00:00 6.8 2 Nordeste 4 Nordeste 0 -- -- 97
2020-03-18 05:00:00 6.7 2 Nordeste 3 Este 0 -- -- 96
2020-03-18 04:00:00 6.8 0 Calma 2 Norte 0 -- -- 95
2020-03-18 03:00:00 7.1 0 Calma 3 Nordeste 0 -- -- 95
2020-03-18 02:00:00 7.6 0 Calma 4 Noroeste 0 -- -- 96
2020-03-18 01:00:00 7.7 3 Noroeste 4 Noroeste 0 -- -- 94
2020-03-18 00:00:00 8.4 2 Oeste 8 Nordeste 0 -- -- 92
2020-03-17 23:00:00 9.1 6 Nordeste 9 Nordeste 0 -- -- 92
2020-03-17 22:00:00 9.9 4 Nordeste 6 Nordeste 0 -- -- 90
2020-03-17 21:00:00 11.5 2 Noroeste 6 Nordeste 0 -- -- 87
2020-03-17 20:00:00 12.6 4 Nordeste 5 Nordeste 0 -- -- 85
2020-03-17 19:00:00 13.7 2 Este 11 Este 0 -- -- 82
2020-03-17 18:00:00 14.4 7 Este 18 Sudeste 0 -- -- 76
2020-03-17 17:00:00 14.7 16 Este 26 Este 0 -- -- 73
2020-03-17 16:00:00 14.7 15 Este 28 Sudeste 0 -- -- 72
2020-03-17 15:00:00 14.5 17 Este 29 Este 0 -- -- 77
2020-03-17 14:00:00 13.9 13 Este 26 Este 0.2 -- -- 81
2020-03-17 13:00:00 13.1 16 Este 23 Este 0 -- -- 85
2020-03-17 12:00:00 11.8 12 Este 15 Este 0.2 -- -- 89
2020-03-17 11:00:00 12.1 12 Sudeste 18 Sudeste 0 -- -- 84
2020-03-17 10:00:00 11.6 6 Este 12 Este 0 -- -- 82
2020-03-17 09:00:00 11.1 0 Calma 6 Norte 0 -- -- 86
2020-03-17 08:00:00 10.7 6 Este 10 Este 0 -- -- 86
2020-03-17 07:00:00 10.8 8 Sudeste 17 Este 0 -- -- 86
2020-03-17 06:00:00 11 7 Nordeste 14 Este 0 -- -- 84
2020-03-17 05:00:00 11.1 7 Este 11 Este 0 -- -- 83
2020-03-17 04:00:00 11.2 5 Este 15 Este 0 -- -- 85
2020-03-17 03:00:00 11.5 10 Este 23 Este 0 -- -- 82
2020-03-17 02:00:00 11.8 15 Este 25 Este 0 -- -- 79
2020-03-17 01:00:00 11.4 13 Este 20 Este 0 -- -- 82
2020-03-17 00:00:00 11.2 15 Este 26 Este 0 -- -- 82
2020-03-16 23:00:00 10.4 14 Este 18 Este 0 -- -- 87
2020-03-16 22:00:00 11 14 Este 31 Este 0 -- -- 81
2020-03-16 21:00:00 11.2 21 Este 30 Este 0 -- -- 80
2020-03-16 20:00:00 11.5 18 Este 35 Nordeste 0 -- -- 81
2020-03-16 19:00:00 11.4 22 Nordeste 36 Nordeste 0.2 -- -- 83
2020-03-16 18:00:00 11 23 Este 44 Este 1 -- -- 86
2020-03-16 17:00:00 12.9 21 Este 39 Este 0 -- -- 73
2020-03-16 16:00:00 12.8 30 Este 47 Este 0 -- -- 71
2020-03-16 15:00:00 12.2 27 Este 42 Este 0 -- -- 74
2020-03-16 14:00:00 11.5 27 Este 46 Este 0 -- -- 78
2020-03-16 13:00:00 10.8 22 Este 50 Este 0 -- -- 82
2020-03-16 12:00:00 10.7 31 Este 49 Este 0 -- -- 86
2020-03-16 11:00:00 10 31 Este 50 Este 0.2 -- -- 91
2020-03-16 10:00:00 9.5 23 Este 36 Este 1.6 -- -- 94
2020-03-16 09:00:00 9.6 18 Este 31 Este 3.2 -- -- 96
2020-03-16 08:00:00 9.7 20 Este 34 Este 3.2 -- -- 96
2020-03-16 07:00:00 9.7 23 Este 36 Este 2 -- -- 97
2020-03-16 06:00:00 10.2 18 Este 31 Este 1.8 -- -- 97
2020-03-16 05:00:00 10.1 18 Este 27 Este 4.2 -- -- 98
2020-03-16 04:00:00 10.1 14 Sudeste 26 Sudeste 2.8 -- -- 97
2020-03-16 03:00:00 10.4 20 Sudeste 30 Sudeste 1 -- -- 96
2020-03-16 02:00:00 10.5 19 Sudeste 35 Sudeste 0.8 -- -- 95
2020-03-16 01:00:00 10.5 26 Este 36 Este 0 -- -- 93
2020-03-16 00:00:00 10.4 26 Este 39 Este 0.2 -- -- 92
2020-03-15 23:00:00 10.6 22 Este 51 Este 0.4 -- -- 92
2020-03-15 22:00:00 10.9 36 Este 56 Este 0 -- -- 88
2020-03-15 21:00:00 11.3 31 Este 45 Este 0.2 -- -- 89
2020-03-15 20:00:00 11.8 27 Este 45 Este 2 -- -- 89
2020-03-15 19:00:00 13.2 27 Este 41 Este 0 -- -- 86
2020-03-15 18:00:00 14.5 22 Este 41 Este 0 -- -- 77
2020-03-15 17:00:00 15.7 30 Este 40 Este 0 -- -- 71
2020-03-15 16:00:00 15.8 24 Sudeste 36 Este 0 -- -- 67
2020-03-15 15:00:00 17 28 Este 40 Este 0 -- -- 58
2020-03-15 14:00:00 17.1 26 Este 38 Sudeste 0 -- -- 61
2020-03-15 13:00:00 15.7 24 Sudeste 35 Sudeste 0 -- -- 68
2020-03-15 12:00:00 13.7 23 Sudeste 32 Sudeste 0 -- -- 77
2020-03-15 11:00:00 10.7 22 Este 31 Este 0 -- -- 85
2020-03-15 10:00:00 8.3 21 Este 28 Este 0 -- -- 92
2020-03-15 09:00:00 7.9 14 Este 17 Sudeste 0 -- -- 94
2020-03-15 08:00:00 5.6 11 Este 16 Este 0 -- -- 96
2020-03-15 07:00:00 5.1 6 Este 16 Este 0 -- -- 93
2020-03-15 06:00:00 5.5 10 Este 14 Este 0 -- -- 92
2020-03-15 05:00:00 5.7 11 Este 17 Este 0 -- -- 91
2020-03-15 04:00:00 6.2 10 Este 15 Nordeste 0 -- -- 89
2020-03-15 03:00:00 6.3 9 Nordeste 13 Nordeste 0 -- -- 90
2020-03-15 02:00:00 6 2 Sur 15 Este 0 -- -- 83
2020-03-15 01:00:00 6 5 Este 12 Nordeste 0 -- -- 82
2020-03-15 00:00:00 6.6 11 Nordeste 15 Nordeste 0 -- -- 78
2020-03-14 23:00:00 6.8 9 Nordeste 16 Este 0 -- -- 76
2020-03-14 22:00:00 7.4 6 Nordeste 13 Nordeste 0 -- -- 73
2020-03-14 21:00:00 10.6 3 Noroeste 13 Sudoeste 0 -- -- 60
2020-03-14 20:00:00 11.9 6 Sudeste 16 Oeste 0 -- -- 56
2020-03-14 19:00:00 14.7 5 Sur 21 Oeste 0 -- -- 50
2020-03-14 18:00:00 17.3 11 Oeste 27 Oeste 0 -- -- 43
2020-03-14 17:00:00 18.2 13 Oeste 27 Noroeste 0 -- -- 41
2020-03-14 16:00:00 18.3 14 Oeste 28 Oeste 0 -- -- 39
2020-03-14 15:00:00 17.9 12 Oeste 24 Sudoeste 0 -- -- 39
2020-03-14 14:00:00 16.3 14 Oeste 25 Sudoeste 0 -- -- 43
2020-03-14 13:00:00 14.8 13 Oeste 26 Oeste 0 -- -- 50
2020-03-14 12:00:00 12.5 16 Oeste 27 Oeste 0 -- -- 59
2020-03-14 11:00:00 10.4 14 Oeste 24 Oeste 0 -- -- 69
2020-03-14 10:00:00 8.4 10 Oeste 24 Oeste 0 -- -- 76
2020-03-14 09:00:00 5.9 13 Oeste 23 Oeste 0 -- -- 87
2020-03-14 08:00:00 4.3 10 Oeste 20 Oeste 0 -- -- 91
2020-03-14 07:00:00 3.8 11 Oeste 18 Oeste 0 -- -- 92
2020-03-14 06:00:00 4.5 6 Oeste 15 Oeste 0 -- -- 90
2020-03-14 05:00:00 4.4 4 Sudoeste 17 Noroeste 0 -- -- 91
2020-03-14 04:00:00 5.6 5 Oeste 20 Sudoeste 0 -- -- 87
2020-03-14 03:00:00 5.8 8 Oeste 21 Oeste 0 -- -- 88
2020-03-14 02:00:00 6.7 9 Oeste 21 Oeste 0 -- -- 86
2020-03-14 01:00:00 7.3 11 Noroeste 26 Noroeste 0 -- -- 86
2020-03-14 00:00:00 8.1 7 Noroeste 15 Oeste 0 -- -- 84
2020-03-13 23:00:00 8.6 6 Oeste 20 Oeste 0 -- -- 84
2020-03-13 22:00:00 8.8 6 Noroeste 12 Noroeste 0 -- -- 86
2020-03-13 21:00:00 9.8 10 Noroeste 14 Noroeste 0 -- -- 83
2020-03-13 20:00:00 10.8 7 Noroeste 23 Oeste 0 -- -- 80
2020-03-13 19:00:00 13 13 Oeste 22 Oeste 0 -- -- 75
2020-03-13 18:00:00 15.7 7 Noroeste 13 Noroeste 0 -- -- 72
2020-03-13 17:00:00 17 5 Sudoeste 11 Oeste 0 -- -- 64
2020-03-13 16:00:00 16.1 4 Oeste 11 Este 0 -- -- 65
2020-03-13 15:00:00 15.3 6 Nordeste 12 Nordeste 0 -- -- 73
2020-03-13 14:00:00 13.7 5 Norte 12 Norte 0 -- -- 75
2020-03-13 13:00:00 13 3 Oeste 9 Noroeste 0 -- -- 77
2020-03-13 12:00:00 11.8 3 Oeste 11 Noroeste 0 -- -- 79
2020-03-13 11:00:00 11.5 6 Oeste 17 Noroeste 0 -- -- 78
2020-03-13 10:00:00 10.4 5 Noroeste 22 Noroeste 0 -- -- 80
2020-03-13 09:00:00 9.7 10 Oeste 22 Oeste 0 -- -- 81
2020-03-13 08:00:00 8.8 12 Oeste 22 Oeste 0 -- -- 82
2020-03-13 07:00:00 9.2 6 Oeste 19 Oeste 0 -- -- 86
2020-03-13 06:00:00 9.5 11 Oeste 23 Oeste 0 -- -- 85
2020-03-13 05:00:00 9.9 10 Oeste 23 Noroeste 0 -- -- 86
2020-03-13 04:00:00 10 10 Oeste 23 Oeste 0 -- -- 86
2020-03-13 03:00:00 10.5 9 Oeste 21 Oeste 0 -- -- 86
2020-03-13 02:00:00 10.6 13 Oeste 22 Oeste 0 -- -- 85
2020-03-13 01:00:00 10.7 15 Oeste 37 Oeste 0 -- -- 85
2020-03-13 00:00:00 11.5 10 Oeste 30 Oeste 0 -- -- 83
2020-03-12 23:00:00 12.1 13 Oeste 34 Oeste 0 -- -- 82
2020-03-12 22:00:00 13 11 Oeste 25 Oeste 0 -- -- 80
2020-03-12 21:00:00 14 18 Noroeste 31 Noroeste 0 -- -- 79
2020-03-12 20:00:00 15.9 16 Noroeste 27 Noroeste 0 -- -- 72
2020-03-12 19:00:00 18.2 15 Oeste 25 Oeste 0 -- -- 66
2020-03-12 18:00:00 22.4 0 Calma 6 Este 0 -- -- 54
2020-03-12 17:00:00 22.5 6 Este 13 Este 0 -- -- 49
2020-03-12 16:00:00 22.4 6 Nordeste 13 Este 0 -- -- 50
2020-03-12 15:00:00 21.3 8 Nordeste 14 Nordeste 0 -- -- 55
2020-03-12 14:00:00 20.5 8 Este 13 Este 0 -- -- 55
2020-03-12 13:00:00 18.8 10 Sudeste 16 Este 0 -- -- 61
2020-03-12 12:00:00 18.2 12 Sudeste 18 Este 0 -- -- 60
2020-03-12 11:00:00 16.2 11 Este 14 Este 0 -- -- 66
2020-03-12 10:00:00 15 11 Este 15 Este 0 -- -- 69
2020-03-12 09:00:00 11.1 6 Este 10 Este 0 -- -- 86
2020-03-12 08:00:00 7.7 0 Calma 10 Nordeste 0 -- -- 88
2020-03-12 07:00:00 8.2 5 Este 11 Este 0 -- -- 87
2020-03-12 06:00:00 9.5 8 Este 14 Nordeste 0 -- -- 81
2020-03-12 05:00:00 8.5 4 Nordeste 6 Nordeste 0 -- -- 86
2020-03-12 04:00:00 9.1 5 Nordeste 8 Nordeste 0 -- -- 83
2020-03-12 03:00:00 9.8 3 Nordeste 10 Nordeste 0 -- -- 82
2020-03-12 02:00:00 10 3 Nordeste 6 Nordeste 0 -- -- 83
2020-03-12 01:00:00 10.8 3 Este 5 Nordeste 0 -- -- 84
2020-03-12 00:00:00 11.9 3 Este 12 Nordeste 0 -- -- 78
2020-03-11 23:00:00 13.1 9 Nordeste 16 Nordeste 0 -- -- 76
2020-03-11 22:00:00 14.3 10 Este 15 Este 0 -- -- 70
2020-03-11 21:00:00 13.6 10 Este 13 Este 0 -- -- 69
2020-03-11 20:00:00 15.4 6 Nordeste 12 Nordeste 0 -- -- 63
2020-03-11 19:00:00 20.8 0 Calma 3 Norte 0 -- -- 41
2020-03-11 18:00:00 23.5 2 Norte 11 Oeste 0 -- -- 32
2020-03-11 17:00:00 23.8 9 Oeste 17 Sudoeste 0 -- -- 32
2020-03-11 16:00:00 24.1 10 Oeste 17 Noroeste 0 -- -- 32
2020-03-11 15:00:00 22.8 12 Oeste 24 Oeste 0 -- -- 41
2020-03-11 14:00:00 21.8 13 Oeste 23 Oeste 0 -- -- 44
2020-03-11 13:00:00 19.6 13 Oeste 26 Oeste 0 -- -- 53
2020-03-11 12:00:00 18.2 15 Oeste 23 Sudoeste 0 -- -- 54
2020-03-11 11:00:00 15.8 12 Oeste 26 Oeste 0 -- -- 62
2020-03-11 10:00:00 12.8 16 Oeste 33 Oeste 0 -- -- 69
2020-03-11 09:00:00 10.4 18 Oeste 33 Oeste 0 -- -- 76
2020-03-11 08:00:00 8.7 14 Oeste 23 Oeste 0 -- -- 79
2020-03-11 07:00:00 7.9 11 Oeste 17 Noroeste 0 -- -- 81
2020-03-11 06:00:00 8.4 10 Oeste 20 Oeste 0 -- -- 72
2020-03-11 05:00:00 8.4 10 Oeste 17 Oeste 0 -- -- 67
2020-03-11 04:00:00 7.2 8 Noroeste 15 Noroeste 0 -- -- 67
2020-03-11 03:00:00 8.9 9 Oeste 17 Oeste 0 -- -- 55
2020-03-11 02:00:00 8.9 6 Oeste 15 Oeste 0 -- -- 53
2020-03-11 01:00:00 10.6 7 Oeste 22 Oeste 0 -- -- 45
2020-03-11 00:00:00 10.7 7 Oeste 13 Oeste 0 -- -- 46
2020-03-10 23:00:00 11.9 12 Noroeste 21 Noroeste 0 -- -- 46
2020-03-10 22:00:00 12.3 15 Noroeste 21 Noroeste 0 -- -- 50
2020-03-10 21:00:00 12.5 4 Sudoeste 11 Noroeste 0 -- -- 55
2020-03-10 20:00:00 14.5 8 Oeste 22 Noroeste 0 -- -- 52
2020-03-10 19:00:00 16.7 13 Noroeste 23 Oeste 0 -- -- 45
2020-03-10 18:00:00 18.8 11 Oeste 27 Oeste 0 -- -- 39
2020-03-10 17:00:00 20.6 15 Oeste 40 Oeste 0 -- -- 36
2020-03-10 16:00:00 20.6 22 Oeste 40 Oeste 0 -- -- 35
2020-03-10 15:00:00 20.6 22 Oeste 40 Oeste 0 -- -- 33
2020-03-10 14:00:00 19.8 21 Oeste 38 Oeste 0 -- -- 33
2020-03-10 13:00:00 18.1 20 Oeste 40 Oeste 0 -- -- 42
2020-03-10 12:00:00 16 27 Noroeste 42 Oeste 0 -- -- 46
2020-03-10 11:00:00 13.9 22 Oeste 40 Noroeste 0 -- -- 55
2020-03-10 10:00:00 10.6 21 Noroeste 32 Oeste 0 -- -- 69
2020-03-10 09:00:00 8.4 15 Oeste 26 Noroeste 0 -- -- 77
2020-03-10 08:00:00 7.2 10 Oeste 23 Noroeste 0 -- -- 79
2020-03-10 07:00:00 7.4 18 Noroeste 37 Noroeste 0 -- -- 77
2020-03-10 06:00:00 7.2 25 Noroeste 41 Oeste 0 -- -- 79
2020-03-10 05:00:00 7.3 22 Noroeste 43 Oeste 0 -- -- 77
2020-03-10 04:00:00 7.4 30 Oeste 44 Oeste 0 -- -- 77
2020-03-10 03:00:00 7.2 26 Oeste 45 Oeste 0 -- -- 78
2020-03-10 02:00:00 7.2 23 Oeste 48 Oeste 0 -- -- 79
2020-03-10 01:00:00 7.7 27 Oeste 48 Oeste 0 -- -- 78
2020-03-10 00:00:00 7.7 26 Oeste 59 Oeste 0 -- -- 78
2020-03-09 23:00:00 7.7 20 Oeste 41 Oeste 0 -- -- 74
2020-03-09 22:00:00 7.7 20 Oeste 40 Oeste 0 -- -- 73
2020-03-09 21:00:00 8.3 21 Oeste 50 Oeste 0 -- -- 63
2020-03-09 20:00:00 9.2 29 Oeste 60 Noroeste 0 -- -- 61
2020-03-09 19:00:00 10 27 Oeste 55 Oeste 0 -- -- 64
2020-03-09 18:00:00 11.8 30 Noroeste 47 Noroeste 0 -- -- 52
2020-03-09 17:00:00 12.7 28 Noroeste 69 Noroeste 0 -- -- 50
2020-03-09 16:00:00 14 34 Noroeste 60 Oeste 0 -- -- 45
2020-03-09 15:00:00 13.6 35 Oeste 59 Noroeste 0 -- -- 52
2020-03-09 14:00:00 13.1 41 Noroeste 63 Oeste 0 -- -- 54
2020-03-09 13:00:00 12.1 42 Noroeste 59 Noroeste 0 -- -- 59
2020-03-09 12:00:00 11.6 37 Oeste 55 Noroeste 0 -- -- 63
2020-03-09 11:00:00 10.7 33 Oeste 53 Oeste 0 -- -- 66
2020-03-09 10:00:00 9.3 27 Oeste 53 Oeste 0 -- -- 71
2020-03-09 09:00:00 8.4 27 Oeste 45 Oeste 0 -- -- 71
2020-03-09 08:00:00 7.9 30 Oeste 46 Oeste 0 -- -- 70
2020-03-09 07:00:00 7.9 26 Noroeste 41 Oeste 0 -- -- 69
2020-03-09 06:00:00 8 24 Oeste 38 Oeste 0 -- -- 70
2020-03-09 05:00:00 8.5 21 Oeste 38 Oeste 0 -- -- 71
2020-03-09 04:00:00 9.6 21 Oeste 33 Oeste 0 -- -- 69
2020-03-09 03:00:00 9.7 13 Oeste 20 Oeste 0 -- -- 72
2020-03-09 02:00:00 9.2 14 Oeste 27 Noroeste 0 -- -- 78
2020-03-09 01:00:00 8.6 9 Noroeste 23 Oeste 0 -- -- 82
2020-03-09 00:00:00 6.7 5 Oeste 10 Sudoeste 0 -- -- 85
2020-03-08 23:00:00 8.1 6 Oeste 9 Sudoeste 0 -- -- 83
2020-03-08 22:00:00 9 2 Oeste 12 Noroeste 0 -- -- 79
2020-03-08 21:00:00 10.5 4 Oeste 11 Oeste 0 -- -- 74
2020-03-08 20:00:00 11.8 6 Oeste 18 Oeste 0 -- -- 69
2020-03-08 19:00:00 13.6 9 Oeste 26 Oeste 0 -- -- 66
2020-03-08 18:00:00 14.9 9 Oeste 27 Oeste 0 -- -- 62
2020-03-08 17:00:00 15.3 16 Oeste 33 Oeste 0 -- -- 57
2020-03-08 16:00:00 16 21 Oeste 37 Oeste 0 -- -- 51
2020-03-08 15:00:00 15.7 22 Oeste 40 Oeste 0 -- -- 55
2020-03-08 14:00:00 15.8 23 Oeste 41 Oeste 0 -- -- 56
2020-03-08 13:00:00 14.4 22 Oeste 36 Oeste 0 -- -- 62
2020-03-08 12:00:00 13.2 17 Oeste 32 Oeste 0 -- -- 64
2020-03-08 11:00:00 11.4 13 Oeste 24 Oeste 0 -- -- 70
2020-03-08 10:00:00 8.7 12 Oeste 19 Sudoeste 0 -- -- 79
2020-03-08 09:00:00 5.5 4 Oeste 9 Oeste 0 -- -- 92
2020-03-08 08:00:00 2.7 5 Noroeste 11 Oeste 0 -- -- 95
2020-03-08 07:00:00 3.4 7 Oeste 13 Oeste 0 -- -- 94
2020-03-08 06:00:00 3.2 3 Oeste 10 Oeste 0 -- -- 94
2020-03-08 05:00:00 4.4 4 Sudoeste 25 Oeste 0 -- -- 89
2020-03-08 04:00:00 4.5 5 Oeste 19 Oeste 0 -- -- 90
2020-03-08 03:00:00 5.3 13 Oeste 31 Oeste 0 -- -- 91
2020-03-08 02:00:00 5.7 13 Oeste 23 Oeste 0 -- -- 89
2020-03-08 01:00:00 6.6 11 Oeste 25 Oeste 0 -- -- 85
2020-03-08 00:00:00 7.9 15 Oeste 28 Noroeste 0 -- -- 78
2020-03-07 23:00:00 8.4 13 Oeste 46 Oeste 0 -- -- 79
2020-03-07 22:00:00 8.8 16 Oeste 37 Oeste 0 -- -- 79
2020-03-07 21:00:00 9.2 16 Oeste 43 Noroeste 0 -- -- 79
2020-03-07 20:00:00 10.2 27 Noroeste 45 Oeste 0 -- -- 69
2020-03-07 19:00:00 11 23 Oeste 49 Noroeste 0 -- -- 69
2020-03-07 18:00:00 13.7 37 Noroeste 59 Noroeste 0 -- -- 54
2020-03-07 17:00:00 13.7 36 Noroeste 67 Noroeste 0 -- -- 55
2020-03-07 16:00:00 15 45 Noroeste 64 Noroeste 0 -- -- 51
2020-03-07 15:00:00 15.1 45 Noroeste 72 Noroeste 0 -- -- 50
2020-03-07 14:00:00 14.7 48 Noroeste 71 Noroeste 0 -- -- 51
2020-03-07 13:00:00 13.9 45 Noroeste 59 Noroeste 0 -- -- 53
2020-03-07 12:00:00 12.7 38 Noroeste 62 Oeste 0 -- -- 59
2020-03-07 11:00:00 10.9 27 Oeste 50 Sudoeste 0 -- -- 75
2020-03-07 10:00:00 8 25 Oeste 55 Oeste 0 -- -- 82
2020-03-07 09:00:00 6.5 28 Oeste 51 Oeste 0 -- -- 86
2020-03-07 08:00:00 4.6 26 Oeste 48 Oeste 0 -- -- 87
2020-03-07 07:00:00 4.5 26 Oeste 47 Oeste 0 -- -- 87
2020-03-07 06:00:00 4 23 Oeste 44 Noroeste 0 -- -- 90
2020-03-07 05:00:00 3.8 17 Oeste 41 Oeste 0 -- -- 92
2020-03-07 04:00:00 3.3 13 Oeste 30 Oeste 0 -- -- 94
2020-03-07 03:00:00 3.3 13 Oeste 31 Oeste 0 -- -- 90
2020-03-07 02:00:00 3.9 19 Oeste 41 Oeste 0 -- -- 85
2020-03-07 01:00:00 3.7 22 Oeste 35 Oeste 0 -- -- 88
2020-03-07 00:00:00 3.8 22 Oeste 37 Oeste 0 -- -- 90
2020-03-06 23:00:00 3.7 22 Oeste 37 Oeste 0 -- -- 89
2020-03-06 22:00:00 3.7 20 Oeste 36 Oeste 0 -- -- 88
2020-03-06 21:00:00 4.1 19 Oeste 41 Oeste 0 -- -- 89
2020-03-06 20:00:00 4.2 21 Oeste 46 Oeste 0.2 -- -- 85
2020-03-06 19:00:00 4.7 24 Oeste 51 Noroeste 0 -- -- 82
2020-03-06 18:00:00 5.5 36 Oeste 63 Noroeste 0 -- -- 76
2020-03-06 17:00:00 6.7 39 Oeste 57 Oeste 0 -- -- 74
2020-03-06 16:00:00 6 28 Oeste 56 Noroeste 0.4 -- -- 85
2020-03-06 15:00:00 7.4 44 Noroeste 76 Noroeste 0 -- -- 67
2020-03-06 14:00:00 8 44 Noroeste 65 Oeste 0 -- -- 63
2020-03-06 13:00:00 7.2 37 Oeste 63 Oeste 0 -- -- 75
2020-03-06 12:00:00 9.2 34 Oeste 60 Oeste 0 -- -- 63
2020-03-06 11:00:00 8 39 Noroeste 62 Noroeste 0 -- -- 69
2020-03-06 10:00:00 7.8 25 Oeste 43 Oeste 0 -- -- 77
2020-03-06 09:00:00 6.4 14 Oeste 29 Oeste 0 -- -- 82
2020-03-06 08:00:00 5 10 Sudoeste 15 Sudoeste 0 -- -- 85
2020-03-06 07:00:00 4.4 5 Oeste 10 Sudoeste 0 -- -- 88
2020-03-06 06:00:00 2.9 3 Oeste 7 Sudoeste 0 -- -- 93
2020-03-06 05:00:00 1.8 5 Sudoeste 9 Sudoeste 0 -- -- 91
2020-03-06 04:00:00 3 3 Sudoeste 17 Oeste 0 -- -- 88
2020-03-06 03:00:00 4.3 4 Noroeste 24 Oeste 0 -- -- 84
2020-03-06 02:00:00 4.3 12 Oeste 23 Oeste 0 -- -- 85
2020-03-06 01:00:00 4.8 11 Sudoeste 22 Oeste 0 -- -- 83
2020-03-06 00:00:00 6.4 14 Oeste 33 Oeste 0 -- -- 74
2020-03-05 23:00:00 6.9 24 Oeste 45 Noroeste 0 -- -- 69
2020-03-05 22:00:00 7.3 27 Noroeste 50 Oeste 0 -- -- 68
2020-03-05 21:00:00 8.3 32 Oeste 51 Noroeste 0 -- -- 66
2020-03-05 20:00:00 9.3 24 Oeste 45 Oeste 0 -- -- 69
2020-03-05 19:00:00 10.6 31 Noroeste 53 Noroeste 0 -- -- 64
2020-03-05 18:00:00 11.8 22 Noroeste 41 Noroeste 0 -- -- 72
2020-03-05 17:00:00 12.9 31 Noroeste 78 Noroeste 0 -- -- 66
2020-03-05 16:00:00 13.7 26 Noroeste 77 Noroeste 0 -- -- 62
2020-03-05 15:00:00 13.5 47 Noroeste 77 Noroeste 0.2 -- -- 63
2020-03-05 14:00:00 12.8 19 Noroeste 47 Oeste 0 -- -- 84
2020-03-05 13:00:00 14.6 3 Oeste 13 Sudoeste 0 -- -- 76
2020-03-05 12:00:00 13.8 5 Sudoeste 12 Sudoeste 0 -- -- 79
2020-03-05 11:00:00 12.4 4 Oeste 22 Sudoeste 0 -- -- 82
2020-03-05 10:00:00 11 8 Sudoeste 15 Sudoeste 0 -- -- 85
2020-03-05 09:00:00 8.6 4 Nordeste 8 Este 0 -- -- 96
2020-03-05 08:00:00 7.6 3 Este 8 Nordeste 0 -- -- 95
2020-03-05 07:00:00 7.3 4 Nordeste 9 Este 0 -- -- 95
2020-03-05 06:00:00 7.1 8 Nordeste 12 Este 0 -- -- 94
2020-03-05 05:00:00 6.9 2 Este 6 Nordeste 0 -- -- 92
2020-03-05 04:00:00 7.2 2 Noroeste 4 Noroeste 0 -- -- 90
2020-03-05 03:00:00 8.8 4 Noroeste 6 Oeste 0 -- -- 86
2020-03-05 02:00:00 10.2 4 Oeste 5 Sudoeste 0 -- -- 86
2020-03-05 01:00:00 11.2 4 Oeste 10 Sudoeste 0 -- -- 84
2020-03-05 00:00:00 10.9 6 Sudoeste 10 Oeste 0 -- -- 88
2020-03-04 23:00:00 10.5 3 Noroeste 12 Noroeste 0 -- -- 89
2020-03-04 22:00:00 11 7 Noroeste 9 Sudoeste 0 -- -- 88
2020-03-04 21:00:00 12.1 3 Noroeste 14 Sudoeste 0 -- -- 84
2020-03-04 20:00:00 13.5 9 Noroeste 13 Norte 0 -- -- 79
2020-03-04 19:00:00 14.9 6 Noroeste 18 Noroeste 0 -- -- 75
2020-03-04 18:00:00 17.2 13 Noroeste 26 Noroeste 0 -- -- 66
2020-03-04 17:00:00 17.8 15 Noroeste 31 Oeste 0 -- -- 65
2020-03-04 16:00:00 18.9 17 Oeste 39 Oeste 0 -- -- 61
2020-03-04 15:00:00 18 19 Oeste 41 Oeste 0 -- -- 69
2020-03-04 14:00:00 17.6 19 Oeste 35 Oeste 0 -- -- 73
2020-03-04 13:00:00 15.6 17 Oeste 36 Oeste 0 -- -- 76
2020-03-04 12:00:00 14.6 18 Oeste 40 Oeste 0 -- -- 79
2020-03-04 11:00:00 12.5 17 Oeste 29 Oeste 0 -- -- 84
2020-03-04 10:00:00 10 14 Oeste 29 Oeste 0 -- -- 88
2020-03-04 09:00:00 8.9 18 Noroeste 25 Oeste 0 -- -- 89
2020-03-04 08:00:00 7.4 8 Oeste 16 Sudoeste 0.2 -- -- 93
2020-03-04 07:00:00 7.2 3 Oeste 15 Oeste 0.4 -- -- 92
2020-03-04 06:00:00 7.5 11 Oeste 21 Oeste 0 -- -- 88
2020-03-04 05:00:00 6.3 8 Oeste 18 Oeste 0 -- -- 89
2020-03-04 04:00:00 6.6 12 Oeste 25 Oeste 0 -- -- 87
2020-03-04 03:00:00 7.3 13 Oeste 27 Oeste 0 -- -- 82
2020-03-04 02:00:00 8.6 21 Oeste 44 Oeste 0 -- -- 76
2020-03-04 01:00:00 8.2 24 Oeste 36 Oeste 0 -- -- 78
2020-03-04 00:00:00 7.9 16 Oeste 32 Noroeste 0 -- -- 79
2020-03-03 23:00:00 8.4 18 Noroeste 33 Noroeste 0 -- -- 75
2020-03-03 22:00:00 9.4 17 Oeste 45 Noroeste 0 -- -- 70
2020-03-03 21:00:00 10.6 32 Noroeste 48 Noroeste 0 -- -- 66
2020-03-03 20:00:00 11.2 33 Oeste 70 Noroeste 0 -- -- 65
2020-03-03 19:00:00 12.4 48 Noroeste 77 Noroeste 0 -- -- 62
2020-03-03 18:00:00 13.8 40 Noroeste 76 Oeste 0 -- -- 62
2020-03-03 17:00:00 12.3 15 Noroeste 26 Noroeste 0 -- -- 79
2020-03-03 16:00:00 11.1 12 Oeste 21 Noroeste 0 -- -- 78
2020-03-03 15:00:00 9.4 3 Sudeste 12 Sudeste 0 -- -- 80
2020-03-03 14:00:00 8 7 Este 13 Este 0 -- -- 85
2020-03-03 13:00:00 6.3 9 Este 18 Nordeste 0 -- -- 90
2020-03-03 12:00:00 5.8 9 Nordeste 13 Nordeste 0.6 -- -- 94
2020-03-03 11:00:00 5.2 3 Nordeste 5 Nordeste 1.4 -- -- 95
2020-03-03 10:00:00 4.4 0 Calma 8 Sudoeste 1.4 -- -- 91
2020-03-03 09:00:00 4 0 Calma 6 Oeste 0.2 -- -- 89
2020-03-03 08:00:00 3.4 4 Oeste 8 Oeste 0 -- -- 86
2020-03-03 07:00:00 3.3 6 Oeste 11 Noroeste 0 -- -- 84
2020-03-03 06:00:00 3.2 10 Noroeste 15 Noroeste 0 -- -- 84
2020-03-03 05:00:00 1.8 9 Noroeste 14 Oeste 0 -- -- 88
2020-03-03 04:00:00 2.4 8 Oeste 18 Oeste 0 -- -- 86
2020-03-03 03:00:00 2.6 9 Oeste 16 Oeste 0 -- -- 86
2020-03-03 02:00:00 2.4 9 Sudoeste 22 Oeste 0 -- -- 87
2020-03-03 01:00:00 3.8 16 Noroeste 30 Oeste 0 -- -- 84
2020-03-03 00:00:00 5.1 20 Noroeste 35 Noroeste 0 -- -- 75
2020-03-02 23:00:00 5 15 Oeste 32 Oeste 0 -- -- 77
2020-03-02 22:00:00 5 19 Oeste 34 Oeste 0 -- -- 75
2020-03-02 21:00:00 5.1 15 Oeste 43 Noroeste 0 -- -- 75
2020-03-02 20:00:00 6.3 33 Noroeste 53 Noroeste 0 -- -- 65
2020-03-02 19:00:00 6.9 36 Noroeste 59 Noroeste 0 -- -- 61
2020-03-02 18:00:00 8.6 41 Noroeste 60 Noroeste 0 -- -- 58
2020-03-02 17:00:00 9.4 42 Noroeste 62 Oeste 0 -- -- 59
2020-03-02 16:00:00 9.8 41 Noroeste 66 Noroeste 0 -- -- 60
2020-03-02 15:00:00 10.9 35 Noroeste 63 Oeste 0 -- -- 59
2020-03-02 14:00:00 10.1 37 Noroeste 58 Oeste 0 -- -- 66
2020-03-02 13:00:00 11.1 35 Oeste 57 Oeste 0 -- -- 61
2020-03-02 12:00:00 10.4 39 Noroeste 63 Oeste 0 -- -- 69
2020-03-02 11:00:00 9.2 37 Noroeste 65 Oeste 0.4 -- -- 77
2020-03-02 10:00:00 7.7 34 Oeste 65 Oeste 1 -- -- 86
2020-03-02 09:00:00 8.3 22 Oeste 35 Oeste 0 -- -- 87
2020-03-02 08:00:00 8.2 18 Oeste 47 Oeste 0.4 -- -- 89
2020-03-02 07:00:00 8.6 32 Oeste 89 Sudoeste 3.2 -- -- 90
2020-03-02 06:00:00 13.9 31 Sudoeste 44 Sudoeste 0 -- -- 72
2020-03-02 05:00:00 13 18 Sudoeste 30 Sudoeste 0 -- -- 80
2020-03-02 04:00:00 11.1 4 Sudeste 20 Nordeste 0.2 -- -- 88
2020-03-02 03:00:00 10.1 14 Este 26 Este 0.4 -- -- 93
2020-03-02 02:00:00 10.1 16 Este 26 Este 1.6 -- -- 94
2020-03-02 01:00:00 10.6 14 Nordeste 24 Nordeste 1.2 -- -- 89
2020-03-02 00:00:00 11.5 12 Nordeste 18 Nordeste 0.8 -- -- 84
2020-03-01 23:00:00 12.9 10 Sur 24 Sur 0 -- -- 74
2020-03-01 22:00:00 13.4 10 Sudoeste 22 Sudoeste 0 -- -- 66
2020-03-01 21:00:00 13.3 13 Sudoeste 20 Sudoeste 0 -- -- 68
2020-03-01 20:00:00 12.9 6 Sudoeste 59 Sudoeste 0 -- -- 71
2020-03-01 19:00:00 15.7 19 Sudoeste 34 Sudoeste 0 -- -- 53
2020-03-01 18:00:00 17.1 20 Sudoeste 40 Sudoeste 0 -- -- 44
2020-03-01 17:00:00 17.2 10 Noroeste 23 Oeste 0 -- -- 45
2020-03-01 16:00:00 18 11 Oeste 29 Oeste 0 -- -- 42
2020-03-01 15:00:00 17 15 Oeste 37 Sudoeste 0 -- -- 46
2020-03-01 14:00:00 17.1 19 Oeste 41 Sudoeste 0 -- -- 48
2020-03-01 13:00:00 17 25 Oeste 53 Sudoeste 0 -- -- 48
2020-03-01 12:00:00 16.2 28 Oeste 54 Oeste 0.2 -- -- 53
2020-03-01 11:00:00 13 9 Oeste 24 Oeste 0 -- -- 65
2020-03-01 10:00:00 11.5 12 Noroeste 18 Noroeste 0 -- -- 66
2020-03-01 09:00:00 10.9 5 Oeste 12 Oeste 0 -- -- 67
2020-03-01 08:00:00 9.3 0 Calma 11 Norte 0 -- -- 73
2020-03-01 07:00:00 8.9 3 Norte 8 Norte 0 -- -- 75
2020-03-01 06:00:00 9.1 4 Sudoeste 12 Sudoeste 0 -- -- 72
2020-03-01 05:00:00 8.9 5 Sudoeste 11 Sudoeste 0 -- -- 74
2020-03-01 04:00:00 8.7 2 Sudoeste 9 Sudoeste 0 -- -- 81
2020-03-01 03:00:00 8.8 8 Noroeste 10 Noroeste 0 -- -- 83
2020-03-01 02:00:00 9.2 3 Oeste 10 Oeste 0 -- -- 82
2020-03-01 01:00:00 10 9 Oeste 14 Oeste 0 -- -- 83
2020-03-01 00:00:00 9.4 10 Noroeste 14 Oeste 0 -- -- 89
2020-02-29 23:00:00 9.8 8 Noroeste 22 Noroeste 0 -- -- 90
2020-02-29 22:00:00 9.6 7 Noroeste 20 Noroeste 0 -- -- 88
2020-02-29 21:00:00 10.8 12 Noroeste 18 Sudoeste 0 -- -- 83
2020-02-29 20:00:00 12.8 5 Oeste 12 Sur 0 -- -- 74
2020-02-29 19:00:00 13.4 3 Noroeste 13 Noroeste 0 -- -- 72
2020-02-29 18:00:00 14.9 10 Oeste 28 Sudoeste 0 -- -- 65
2020-02-29 17:00:00 14.9 14 Sudoeste 40 Sudoeste 0 -- -- 66
2020-02-29 16:00:00 16.2 19 Sudoeste 31 Sudoeste 0 -- -- 57
2020-02-29 15:00:00 16.7 11 Sudoeste 20 Sudoeste 0 -- -- 52
2020-02-29 14:00:00 14.1 10 Sudeste 14 Sudeste 0 -- -- 74
2020-02-29 13:00:00 12.8 13 Sudeste 17 Sudeste 0 -- -- 76
2020-02-29 12:00:00 11.1 13 Este 22 Este 0 -- -- 82
2020-02-29 11:00:00 10.3 11 Sudeste 23 Sudeste 0 -- -- 86
2020-02-29 10:00:00 9.5 14 Sudeste 22 Este 0 -- -- 89
2020-02-29 09:00:00 8.2 14 Este 21 Este 0 -- -- 93
2020-02-29 08:00:00 7.1 14 Este 22 Sudeste 0 -- -- 94
2020-02-29 07:00:00 7.3 13 Este 18 Este 0 -- -- 94
2020-02-29 06:00:00 7.6 11 Este 21 Este 0 -- -- 95
2020-02-29 05:00:00 7.5 13 Este 21 Este 0 -- -- 96
2020-02-29 04:00:00 7.7 17 Este 22 Este 0 -- -- 95
2020-02-29 03:00:00 7.9 15 Este 24 Este 0 -- -- 93
2020-02-29 02:00:00 9 21 Este 31 Este 0 -- -- 90
2020-02-29 01:00:00 9.7 22 Este 38 Este 0 -- -- 90
2020-02-29 00:00:00 9.9 25 Este 33 Este 0 -- -- 92
2020-02-28 23:00:00 9.8 17 Este 27 Este 0 -- -- 91
2020-02-28 22:00:00 9.7 15 Este 23 Este 0 -- -- 85
2020-02-28 21:00:00 10.5 15 Nordeste 27 Este 0 -- -- 75
2020-02-28 20:00:00 13 16 Este 23 Este 0 -- -- 62
2020-02-28 19:00:00 14.6 8 Este 13 Este 0 -- -- 53
2020-02-28 18:00:00 17.7 5 Sudeste 8 Sur 0 -- -- 46
2020-02-28 17:00:00 19.2 5 Sudoeste 17 Sudoeste 0 -- -- 38
2020-02-28 16:00:00 19.4 12 Sudoeste 18 Sudoeste 0 -- -- 36
2020-02-28 15:00:00 18.5 8 Oeste 19 Oeste 0 -- -- 45
2020-02-28 14:00:00 17.3 11 Oeste 24 Noroeste 0 -- -- 50
2020-02-28 13:00:00 16.6 13 Oeste 27 Sudoeste 0 -- -- 53
2020-02-28 12:00:00 15.6 16 Oeste 26 Sudoeste 0 -- -- 57
2020-02-28 11:00:00 13.5 13 Sudoeste 25 Oeste 0 -- -- 71
2020-02-28 10:00:00 11.6 13 Oeste 26 Oeste 0 -- -- 78
2020-02-28 09:00:00 9.3 9 Oeste 25 Sudoeste 0 -- -- 86
2020-02-28 08:00:00 7.4 11 Noroeste 16 Oeste 0 -- -- 91
2020-02-28 07:00:00 7.3 6 Oeste 17 Sudoeste 0 -- -- 91
2020-02-28 06:00:00 8.7 8 Oeste 22 Oeste 0 -- -- 87
2020-02-28 05:00:00 9.8 10 Oeste 27 Oeste 0 -- -- 84
2020-02-28 04:00:00 9.9 12 Oeste 31 Oeste 0 -- -- 84
2020-02-28 03:00:00 9.8 19 Oeste 34 Oeste 0 -- -- 85
2020-02-28 02:00:00 10 15 Oeste 37 Oeste 0 -- -- 84
2020-02-28 01:00:00 10.3 15 Oeste 30 Oeste 0 -- -- 82
2020-02-28 00:00:00 10.8 15 Oeste 33 Oeste 0 -- -- 79